Flight Track Log - Related Links

Times and Time Zones

All times are in EST time to prevent confusion due to time zone crossing. See the FIN666 flight status page for this flight to view local times or setup timezone preferences in your user account.

Time Position Orientation Groundspeed Altitude Reporting Facility
EST Latitude Longitude Course Direction KTS MPH feet Rate Location/Type
Wed 07:29:00 AM 55.8520 13.1400 49° Northeast  Level Estimated
Wed 07:30:00 AM 55.9296 13.3027 50° Northeast  Level Estimated
Wed 07:31:00 AM 56.0070 13.4660 50° Northeast  Level Estimated
Wed 07:32:00 AM 56.0891 13.6404 50° Northeast  Level Estimated
Wed 07:33:00 AM 56.1710 13.8155 50° Northeast  Level Estimated
Wed 07:34:00 AM 56.2525 13.9914 50° Northeast  Level Estimated
Wed 07:35:00 AM 56.3339 14.1680 50° Northeast  Level Estimated
Wed 07:36:00 AM 56.4150 14.3454 50° Northeast  Level Estimated
Wed 07:37:00 AM 56.4958 14.5235 51° Northeast  Level Estimated
Wed 07:38:00 AM 56.5763 14.7024 51° Northeast  Level Estimated
Wed 07:39:00 AM 56.6567 14.8820 51° Northeast  Level Estimated
Wed 07:40:00 AM 56.7367 15.0625 51° Northeast  Level Estimated
Wed 07:41:00 AM 56.8165 15.2437 51° Northeast  Level Estimated
Wed 07:42:00 AM 56.8960 15.4256 51° Northeast  Level Estimated
Wed 07:43:00 AM 56.9753 15.6084 51° Northeast  Level Estimated
Wed 07:44:00 AM 57.0530 15.7890 52° Northeast  Level Estimated
Wed 07:45:00 AM 57.1305 15.9704 52° Northeast  Level Estimated
Wed 07:46:00 AM 57.2078 16.1526 52° Northeast  Level Estimated
Wed 07:47:00 AM 57.2847 16.3355 52° Northeast  Level Estimated
Wed 07:48:00 AM 57.3614 16.5192 52° Northeast  Level Estimated
Wed 07:49:00 AM 57.4379 16.7036 52° Northeast  Level Estimated
Wed 07:50:00 AM 57.5140 16.8889 53° Northeast  Level Estimated
Wed 07:51:00 AM 57.5899 17.0749 53° Northeast  Level Estimated
Wed 07:52:00 AM 57.6656 17.2616 53° Northeast  Level Estimated
Wed 07:53:00 AM 57.7409 17.4492 53° Northeast  Level Estimated
Wed 07:54:00 AM 57.8160 17.6375 53° Northeast  Level Estimated
Wed 07:55:00 AM 57.8907 17.8267 53° Northeast  Level Estimated
Wed 07:56:00 AM 57.9652 18.0166 53° Northeast  Level Estimated
Wed 07:57:00 AM 58.0395 18.2073 54° Northeast  Level Estimated
Wed 07:58:00 AM 58.1134 18.3988 54° Northeast  Level Estimated
Wed 07:59:00 AM 58.1870 18.5910 54° Northeast  Level Estimated
Wed 08:00:00 AM 58.2604 18.7841 54° Northeast  Level Estimated
Wed 08:01:00 AM 58.3334 18.9780 54° Northeast  Level Estimated
Wed 08:02:00 AM 58.4062 19.1727 54° Northeast  Level Estimated
Wed 08:03:00 AM 58.4787 19.3682 55° Northeast  Level Estimated
Wed 08:04:00 AM 58.5508 19.5645 55° Northeast  Level Estimated
Wed 08:05:00 AM 58.6227 19.7616 55° Northeast  Level Estimated
Wed 08:06:00 AM 58.6943 19.9595 55° Northeast  Level Estimated
Wed 08:07:00 AM 58.7655 20.1582 55° Northeast  Level Estimated
Wed 08:08:00 AM 58.8365 20.3577 55° Northeast  Level Estimated
Wed 08:09:00 AM 58.9072 20.5581 56° Northeast  Level Estimated
Wed 08:10:00 AM 58.9775 20.7593 56° Northeast  Level Estimated
Wed 08:11:00 AM 59.0475 20.9613 56° Northeast  Level Estimated
Wed 08:12:00 AM 59.1172 21.1641 56° Northeast  Level Estimated
Wed 08:13:00 AM 59.1866 21.3678 56° Northeast  Level Estimated
Wed 08:14:00 AM 59.2557 21.5722 56° Northeast  Level Estimated
Wed 08:15:00 AM 59.3244 21.7775 57° Northeast  Level Estimated
Wed 08:16:00 AM 59.3929 21.9837 57° Northeast  Level Estimated
Wed 08:17:00 AM 59.4610 22.1906 57° Northeast  Level Estimated
Wed 08:18:00 AM 59.5287 22.3984 57° Northeast  Level Estimated
Wed 08:19:00 AM 59.5962 22.6070 57° Northeast  Level Estimated
Wed 08:20:00 AM 59.6633 22.8165 58° Northeast  Level Estimated
Wed 08:21:00 AM 59.7300 23.0268 58° Northeast  Level Estimated
Wed 08:22:00 AM 59.7965 23.2380 58° Northeast  Level Estimated
Wed 08:23:00 AM 59.8626 23.4500 58° Northeast  Level Estimated
Wed 08:24:00 AM 59.9283 23.6628 58° Northeast  Level Estimated
Wed 08:25:00 AM 59.9937 23.8765 58° Northeast  Level Estimated
Wed 08:26:00 AM 60.0588 24.0910 59° Northeast  Level Estimated
Wed 08:27:00 AM 60.1235 24.3063 59° Northeast  Level Estimated
Wed 08:28:00 AM 60.1879 24.5226 59° Northeast  Level Estimated
Wed 08:29:00 AM 60.2519 24.7396 59° Northeast  Level Estimated
Wed 08:30:00 AM 60.3155 24.9575 59° Northeast  Level Estimated
Wed 08:31:00 AM 60.3172 24.9633 60° Northeast  Level Estimated
Wed 08:32:00 AM 60.3172 24.9633 37° Northeast  Level Estimated
Wed 08:33:00 AM 60.3172 24.9633 37° Northeast  Level Estimated
Wed 08:34:00 AM 60.3172 24.9633 37° Northeast  Level Estimated
Wed 08:35:00 AM 60.3172 24.9633 37° Northeast  Level Estimated
Wed 08:36:00 AM 60.3172 24.9633 37° Northeast  Level Estimated
Wed 08:37:00 AM 60.3172 24.9633 37° Northeast  Level Estimated
Wed 08:38:00 AM 60.3172 24.9633 37° Northeast  Level Estimated
Wed 08:39:00 AM 60.3172 24.9633 37° Northeast  Level Estimated
Wed 08:40:00 AM 60.3172 24.9633 37° Northeast  Level Estimated
Wed 08:41:00 AM 60.3172 24.9633 37° Northeast  Level Estimated
Wed 08:42:00 AM 60.3172 24.9633 37° Northeast  Level Estimated
Wed 08:43:00 AM 60.3172 24.9633 37° Northeast  Level Estimated
Wed 08:44:00 AM 60.3172 24.9633 37° Northeast  Level Estimated
Wed 08:45:00 AM 60.3172 24.9633 37° Northeast  Level Estimated
Wed 08:46:00 AM 60.3172 24.9633 37° Northeast  Level Estimated
Wed 08:47:00 AM 60.3172 24.9633 37° Northeast  Level Estimated

Login

Don't have an account? Register now (free) for customized features, flight alerts, and more!